createdAt,value
2023-01-17T01:22:40.592Z,23.00
2023-01-17T01:25:26.822Z,22.90
2023-01-17T01:28:21.858Z,22.30
2023-01-17T01:31:07.831Z,21.60
2023-01-17T01:33:34.957Z,23.80
2023-01-17T01:36:02.341Z,22.40
2023-01-17T01:38:30.035Z,22.90
2023-01-17T01:40:57.014Z,22.70
2023-01-17T01:43:47.268Z,22.40
2023-01-17T01:46:18.015Z,24.40
2023-01-17T01:48:58.044Z,21.40
2023-01-17T01:51:27.666Z,22.30
2023-01-17T01:53:59.611Z,22.20
2023-01-17T01:56:26.642Z,24.20
2023-01-17T01:58:53.666Z,23.00
2023-01-17T02:01:20.741Z,23.00
2023-01-17T02:03:47.981Z,22.60
2023-01-17T02:06:32.317Z,24.10
2023-01-17T02:09:05.471Z,21.20
2023-01-17T02:11:32.549Z,23.00
2023-01-17T02:14:00.185Z,21.50
2023-01-17T02:16:43.959Z,23.90
2023-01-17T02:19:24.731Z,23.00
2023-01-17T02:21:58.273Z,23.80
2023-01-17T02:24:46.816Z,23.50
2023-01-17T02:27:33.459Z,23.80
2023-01-17T02:30:22.496Z,23.10
2023-01-17T02:33:24.827Z,23.40
2023-01-17T02:36:21.292Z,22.90
2023-01-17T02:39:03.660Z,23.50
2023-01-17T02:41:38.826Z,23.90
2023-01-17T02:44:08.491Z,22.90
2023-01-17T02:46:46.224Z,24.10
2023-01-17T02:49:14.927Z,24.10
2023-01-17T02:51:51.166Z,23.80
2023-01-17T02:54:42.822Z,26.20
2023-01-17T02:57:46.212Z,25.60
2023-01-17T03:00:36.493Z,26.30
2023-01-17T03:03:22.178Z,25.30
2023-01-17T03:05:53.484Z,25.00
2023-01-17T03:10:48.118Z,26.00
2023-01-17T03:13:15.407Z,26.50
2023-01-17T03:15:42.733Z,25.20
2023-01-17T03:18:12.645Z,25.20
2023-01-17T03:20:39.613Z,26.10
2023-01-17T03:23:06.701Z,24.90
2023-01-17T03:25:33.702Z,25.40
2023-01-17T03:28:00.807Z,26.30
2023-01-17T03:30:28.065Z,25.10
2023-01-17T03:32:55.027Z,24.60
2023-01-17T03:35:22.136Z,26.20
2023-01-17T03:37:49.291Z,24.00
2023-01-17T03:40:16.539Z,25.40
2023-01-17T03:42:43.695Z,25.60
2023-01-17T03:45:11.330Z,25.30
2023-01-17T03:47:38.396Z,25.90
2023-01-17T03:50:07.765Z,26.70
2023-01-17T03:52:35.905Z,27.50
2023-01-17T03:55:02.975Z,26.20
2023-01-17T03:57:30.967Z,27.20
2023-01-17T03:59:58.256Z,26.40
2023-01-17T10:16:44.990Z,18.70
2023-01-17T10:19:36.781Z,17.30
2023-01-17T10:22:31.271Z,18.30
2023-01-17T10:25:17.372Z,17.60
2023-01-17T10:27:59.061Z,17.40
2023-01-17T10:30:34.799Z,16.70
2023-01-17T10:33:34.634Z,18.40
2023-01-17T10:36:06.201Z,18.30
2023-01-17T10:38:36.628Z,18.30
2023-01-17T10:41:41.330Z,18.40
2023-01-17T10:44:40.222Z,17.60
2023-01-17T10:47:10.434Z,17.40
2023-01-17T10:49:40.014Z,18.00
2023-01-17T10:52:40.813Z,17.00
2023-01-17T10:55:08.981Z,17.90
2023-01-17T10:57:41.834Z,18.70
2023-01-17T11:00:35.121Z,20.10
2023-01-17T11:03:02.465Z,19.40
2023-01-17T11:05:31.220Z,19.50
2023-01-17T11:08:06.447Z,17.70
2023-01-17T11:10:42.456Z,19.00
2023-01-17T11:13:23.782Z,19.80
2023-01-17T11:16:18.135Z,19.20
2023-01-17T11:18:46.215Z,19.60
2023-01-17T11:21:23.539Z,19.30
2023-01-17T11:23:52.217Z,19.40
2023-01-17T11:26:33.153Z,20.60
2023-01-17T11:29:37.524Z,19.80
2023-01-17T11:32:23.148Z,21.70
2023-01-17T11:35:16.960Z,19.40
2023-01-17T11:38:02.543Z,20.10
2023-01-17T11:40:40.146Z,19.30
2023-01-17T11:43:19.598Z,19.40
2023-01-17T11:45:48.048Z,19.20
2023-01-17T11:48:17.108Z,18.10
2023-01-17T11:50:55.402Z,20.40
2023-01-17T11:53:29.371Z,20.20
2023-01-17T11:56:07.113Z,20.00
2023-01-17T11:58:35.942Z,20.40
2023-01-17T12:01:13.249Z,19.40
2023-01-17T12:03:52.647Z,19.00
2023-01-17T12:06:29.732Z,19.50
2023-01-17T12:09:27.822Z,19.20
2023-01-17T12:12:26.121Z,18.20
2023-01-17T12:14:59.269Z,19.90
2023-01-17T12:18:09.252Z,18.60
2023-01-17T12:20:48.904Z,17.80
2023-01-17T12:23:44.444Z,19.80
2023-01-17T12:26:25.953Z,20.30
2023-01-17T12:29:01.291Z,20.10
2023-01-17T12:31:54.261Z,19.40
2023-01-17T12:34:39.823Z,18.60
2023-01-17T12:37:29.799Z,16.60
2023-01-17T12:39:59.931Z,17.90
2023-01-17T12:42:30.135Z,16.40
2023-01-17T12:45:28.883Z,18.00
2023-01-17T12:48:00.192Z,17.20
2023-01-17T12:50:38.845Z,17.10
2023-01-17T12:53:18.939Z,17.40
2023-01-17T12:55:53.671Z,15.90
2023-01-17T12:58:23.347Z,15.60
2023-01-17T13:01:17.646Z,15.10
2023-01-17T13:03:47.912Z,15.50
2023-01-17T13:06:20.093Z,13.70
2023-01-17T13:08:49.965Z,15.20
2023-01-17T13:11:21.346Z,15.50
2023-01-17T13:13:51.595Z,14.90
2023-01-17T19:19:15.546Z,13.20
2023-01-17T19:21:51.278Z,12.10
2023-01-17T19:24:19.633Z,13.00
2023-01-17T19:26:54.161Z,15.00
2023-01-17T19:29:22.316Z,12.40
2023-01-17T19:31:53.952Z,12.50
2023-01-17T19:34:21.033Z,11.20
2023-01-17T19:36:48.992Z,11.60
2023-01-17T19:39:16.484Z,12.20
2023-01-17T19:41:44.507Z,11.10
2023-01-17T19:44:12.724Z,12.10
2023-01-17T19:46:39.802Z,12.40
2023-01-17T19:49:09.018Z,11.40
2023-01-17T19:51:38.873Z,11.20
2023-01-17T19:54:07.382Z,11.50
2023-01-17T19:56:36.667Z,13.60
2023-01-17T19:59:04.692Z,11.20
2023-01-17T20:01:32.882Z,12.50
2023-01-17T20:04:04.026Z,11.70
2023-01-17T20:06:34.625Z,11.10
2023-01-17T20:09:02.638Z,11.20
2023-01-17T20:11:32.863Z,13.50
2023-01-17T20:14:04.992Z,11.50
2023-01-17T20:16:54.803Z,10.90
2023-01-17T20:19:26.102Z,10.60
2023-01-17T20:21:54.052Z,10.10
2023-01-17T20:24:24.871Z,11.20
2023-01-17T20:26:58.229Z,10.60
2023-01-17T20:29:28.646Z,10.60
2023-01-17T20:31:58.475Z,10.80
2023-01-17T20:34:39.445Z,11.30
2023-01-17T20:37:14.384Z,11.30
2023-01-17T20:39:42.950Z,11.30
2023-01-17T20:42:13.053Z,11.60
2023-01-17T20:44:43.131Z,10.20
2023-01-17T20:47:13.347Z,10.70
2023-01-17T20:49:43.977Z,10.50
2023-01-17T20:52:15.261Z,10.70
2023-01-17T20:54:43.979Z,10.40
2023-01-17T20:57:16.757Z,11.30
2023-01-17T20:59:51.473Z,12.40
2023-01-17T21:02:21.990Z,11.70
2023-01-17T21:04:58.451Z,13.30
2023-01-17T21:07:26.505Z,11.70
2023-01-17T21:09:54.421Z,10.50
2023-01-17T21:12:22.064Z,11.50
2023-01-17T21:15:12.075Z,10.20
2023-01-17T21:17:44.721Z,13.00
2023-01-17T21:20:34.440Z,11.10
2023-01-17T21:23:07.945Z,10.70
2023-01-17T21:26:15.502Z,10.80
2023-01-17T21:28:47.128Z,9.40
2023-01-17T21:31:26.025Z,10.20
2023-01-17T21:34:04.694Z,11.00
2023-01-17T21:36:37.448Z,10.20
2023-01-17T21:39:18.189Z,10.30
2023-01-17T21:41:50.801Z,9.50
2023-01-17T21:44:20.788Z,10.10
2023-01-17T21:46:48.308Z,9.90
2023-01-17T21:49:16.731Z,9.20
2023-01-17T21:51:53.312Z,9.70
2023-01-17T21:54:47.093Z,9.20
2023-01-17T21:57:38.284Z,10.40
2023-01-17T22:00:06.606Z,10.40
2023-01-17T22:03:06.116Z,10.20
2023-01-17T22:05:34.293Z,10.00
2023-01-17T22:08:14.940Z,9.70
